createdAt,value
2017-11-11T00:00:46.638Z,73.47
2017-11-11T00:01:53.603Z,73.48
2017-11-11T00:03:00.407Z,73.46
2017-11-11T00:04:07.305Z,73.47
2017-11-11T00:05:14.067Z,73.50
2017-11-11T00:07:28.215Z,73.54
2017-11-11T00:08:35.002Z,73.56
2017-11-11T00:09:41.834Z,73.56
2017-11-11T00:10:48.587Z,73.56
2017-11-11T00:11:55.430Z,73.56
2017-11-11T00:13:02.482Z,73.60
2017-11-11T00:14:09.201Z,73.58
2017-11-11T00:15:16.139Z,73.60
2017-11-11T00:16:23.039Z,73.59
2017-11-11T00:17:29.795Z,73.63
2017-11-11T00:18:36.574Z,73.66
2017-11-11T00:19:43.257Z,73.67
2017-11-11T00:20:50.574Z,73.68
2017-11-11T00:21:57.365Z,73.68
2017-11-11T00:23:04.186Z,73.69
2017-11-11T00:24:10.892Z,73.69
2017-11-11T00:25:17.737Z,73.72
2017-11-11T00:26:24.616Z,73.75
2017-11-11T00:27:31.278Z,73.76
2017-11-11T00:28:38.155Z,73.78
2017-11-11T00:29:44.860Z,73.76
2017-11-11T00:30:51.722Z,73.79
2017-11-11T00:31:58.462Z,73.83
2017-11-11T00:33:05.665Z,73.84
2017-11-11T00:34:12.494Z,73.87
2017-11-11T00:35:19.262Z,73.86
2017-11-11T00:36:26.278Z,73.87
2017-11-11T00:37:33.034Z,73.87
2017-11-11T00:38:39.909Z,73.91
2017-11-11T00:39:46.770Z,73.95
2017-11-11T00:40:53.486Z,74.02
2017-11-11T00:42:00.377Z,74.05
2017-11-11T00:43:07.154Z,74.04
2017-11-11T00:44:13.994Z,74.08
2017-11-11T00:45:20.814Z,74.07
2017-11-11T00:46:27.563Z,74.13
2017-11-11T00:47:34.365Z,74.15
2017-11-11T00:48:41.142Z,74.21
2017-11-11T00:49:47.850Z,74.27
2017-11-11T00:50:54.691Z,74.32
2017-11-11T00:52:01.438Z,74.36
2017-11-11T00:53:08.313Z,74.37
2017-11-11T00:54:15.068Z,74.41
2017-11-11T00:55:21.901Z,74.41
2017-11-11T00:56:28.709Z,74.46
2017-11-11T00:57:35.557Z,74.53
2017-11-11T00:58:42.439Z,74.57
2017-11-11T00:59:49.146Z,74.59
2017-11-11T01:00:55.856Z,74.64
2017-11-11T01:02:02.758Z,74.68
2017-11-11T01:03:09.558Z,74.69
2017-11-11T01:04:16.361Z,74.79
2017-11-11T01:05:23.229Z,74.84
2017-11-11T01:06:29.995Z,74.88
2017-11-11T01:07:36.941Z,74.91
2017-11-11T01:08:43.774Z,74.97
2017-11-11T01:09:50.457Z,75.01
2017-11-11T01:10:57.164Z,75.06
2017-11-11T01:12:04.037Z,75.11
2017-11-11T01:13:11.103Z,75.15
2017-11-11T01:14:17.990Z,75.23
2017-11-11T01:15:24.819Z,75.30
2017-11-11T01:16:31.614Z,75.35
2017-11-11T01:17:38.363Z,75.44
2017-11-11T01:18:45.351Z,75.45
2017-11-11T01:19:52.219Z,75.53
2017-11-11T01:20:59.001Z,75.60
2017-11-11T01:22:05.773Z,75.65
2017-11-11T01:23:12.535Z,75.68
2017-11-11T01:24:19.590Z,75.74
2017-11-11T01:25:26.490Z,75.80
2017-11-11T01:26:33.402Z,75.84
2017-11-11T01:27:40.306Z,75.92
2017-11-11T01:28:47.236Z,75.97
2017-11-11T01:29:54.045Z,75.98
2017-11-11T01:31:00.850Z,76.05
2017-11-11T01:32:07.595Z,76.09
2017-11-11T01:33:14.395Z,76.12
2017-11-11T01:34:21.154Z,76.16
2017-11-11T01:35:27.927Z,76.22
2017-11-11T01:36:34.745Z,76.28
2017-11-11T01:37:41.531Z,76.29
2017-11-11T01:38:48.426Z,76.36
2017-11-11T01:39:55.424Z,76.41
2017-11-11T01:41:02.154Z,76.43
2017-11-11T01:42:08.982Z,76.50
2017-11-11T01:43:15.846Z,76.53
2017-11-11T01:44:22.801Z,76.59
2017-11-11T01:45:29.561Z,76.67
2017-11-11T01:46:36.346Z,76.69
2017-11-11T01:47:43.093Z,76.73
2017-11-11T01:48:49.841Z,76.84
2017-11-11T01:49:56.673Z,76.86
2017-11-11T01:51:03.609Z,76.89
2017-11-11T01:52:10.366Z,76.94
2017-11-11T01:53:17.374Z,77.02
2017-11-11T01:54:24.146Z,77.04
2017-11-11T01:55:30.973Z,77.10
2017-11-11T01:56:37.762Z,77.17
2017-11-11T01:57:44.557Z,77.21
2017-11-11T01:58:51.319Z,77.24
2017-11-11T01:59:58.167Z,77.29
2017-11-11T02:01:05.145Z,77.36
2017-11-11T02:02:12.148Z,77.42
2017-11-11T02:03:19.103Z,77.44
2017-11-11T02:04:26.090Z,77.53
2017-11-11T02:05:32.862Z,77.59
2017-11-11T02:06:39.737Z,77.60
2017-11-11T02:07:46.494Z,77.63
2017-11-11T02:08:53.293Z,77.67
2017-11-11T02:10:00.255Z,77.69
2017-11-11T02:11:07.330Z,77.75
2017-11-11T02:12:14.289Z,77.78
2017-11-11T02:13:21.129Z,77.84
2017-11-11T02:14:28.281Z,77.88
2017-11-11T02:15:34.666Z,77.92
2017-11-11T02:16:41.536Z,77.97
2017-11-11T02:17:48.400Z,78.04
2017-11-11T02:18:55.290Z,78.10
2017-11-11T02:20:02.040Z,78.13
2017-11-11T02:21:09.122Z,78.16
2017-11-11T02:22:15.878Z,78.21
2017-11-11T02:23:22.850Z,78.26
2017-11-11T02:24:29.809Z,78.29
2017-11-11T02:25:36.753Z,78.34
2017-11-11T02:26:43.614Z,78.34
2017-11-11T02:27:50.650Z,78.41
2017-11-11T02:28:57.370Z,78.47
2017-11-11T02:30:04.267Z,78.50
2017-11-11T02:31:11.270Z,78.57
2017-11-11T02:32:18.142Z,78.62
2017-11-11T02:33:25.059Z,78.62
2017-11-11T02:34:31.981Z,78.62
2017-11-11T02:35:38.807Z,78.66
2017-11-11T02:36:45.782Z,78.71
2017-11-11T02:37:52.727Z,78.75
2017-11-11T02:38:59.635Z,78.79
2017-11-11T02:40:06.710Z,78.78
2017-11-11T02:41:13.507Z,78.85
2017-11-11T02:42:20.313Z,78.86
2017-11-11T02:43:27.054Z,78.88
2017-11-11T02:44:34.047Z,78.93
2017-11-11T02:45:40.987Z,78.97
2017-11-11T02:46:47.926Z,79.01
2017-11-11T02:47:55.009Z,79.05
2017-11-11T02:49:02.031Z,79.08
2017-11-11T02:50:08.979Z,79.12
2017-11-11T02:51:15.793Z,79.20
2017-11-11T02:52:22.789Z,79.22
2017-11-11T02:53:29.730Z,79.28
2017-11-11T02:54:37.074Z,79.34
2017-11-11T02:55:43.781Z,79.37
2017-11-11T02:56:51.137Z,79.40
2017-11-11T02:57:57.906Z,79.44
2017-11-11T02:59:04.711Z,79.51
2017-11-11T03:00:11.551Z,79.52
2017-11-11T03:01:18.367Z,79.58
2017-11-11T03:02:25.111Z,79.62
2017-11-11T03:03:32.043Z,79.65
2017-11-11T03:04:38.807Z,79.70
2017-11-11T03:05:45.703Z,79.76
2017-11-11T03:06:52.557Z,79.81
2017-11-11T03:07:59.414Z,79.87
2017-11-11T03:09:06.307Z,79.90
2017-11-11T03:10:14.385Z,79.96
2017-11-11T03:11:20.202Z,80.04
2017-11-11T03:12:26.934Z,80.07
2017-11-11T03:13:33.743Z,80.11
2017-11-11T03:14:40.615Z,80.17
2017-11-11T03:15:47.311Z,80.23
2017-11-11T03:16:54.185Z,80.26
2017-11-11T03:18:00.865Z,80.33
2017-11-11T03:19:07.753Z,80.31
2017-11-11T03:20:14.717Z,80.40
2017-11-11T03:21:21.534Z,80.42
2017-11-11T03:22:28.246Z,80.50
2017-11-11T03:23:35.098Z,80.57
2017-11-11T03:24:41.962Z,80.63
2017-11-11T03:25:48.694Z,80.66
2017-11-11T03:26:55.402Z,80.75
2017-11-11T03:28:02.233Z,80.79
2017-11-11T03:29:08.999Z,80.83
2017-11-11T03:30:15.877Z,80.90
2017-11-11T03:31:22.660Z,80.96
2017-11-11T03:32:29.502Z,80.99
2017-11-11T03:33:36.290Z,81.04
2017-11-11T03:34:43.103Z,81.10
2017-11-11T03:35:49.770Z,81.17
2017-11-11T03:36:57.108Z,81.26
2017-11-11T03:38:03.847Z,81.30
2017-11-11T03:39:10.976Z,81.36
2017-11-11T03:40:17.620Z,81.38
2017-11-11T03:41:24.781Z,81.50
2017-11-11T03:42:31.910Z,81.47
2017-11-11T03:43:38.622Z,81.54
2017-11-11T03:44:46.026Z,81.56
2017-11-11T03:45:52.829Z,81.61
2017-11-11T03:46:39.919Z,81.68
2017-11-11T03:47:46.629Z,81.69
2017-11-11T03:48:53.521Z,81.77
2017-11-11T03:50:00.449Z,81.78
2017-11-11T03:51:07.326Z,81.82
2017-11-11T03:52:14.118Z,81.84
2017-11-11T03:53:21.066Z,81.92
2017-11-11T03:54:27.786Z,81.96
2017-11-11T03:55:34.578Z,81.97
2017-11-11T03:56:41.367Z,81.99
2017-11-11T03:57:48.051Z,82.05
2017-11-11T03:58:54.774Z,82.09
2017-11-11T04:00:01.442Z,82.13
2017-11-11T04:01:08.170Z,82.17
2017-11-11T04:02:14.929Z,82.20
2017-11-11T04:03:21.777Z,82.20
2017-11-11T04:04:28.630Z,82.26
2017-11-11T04:05:35.429Z,82.30
2017-11-11T04:06:42.130Z,82.33
2017-11-11T04:07:49.306Z,82.35
2017-11-11T04:08:56.121Z,82.42
2017-11-11T04:10:02.830Z,82.45
2017-11-11T04:11:09.731Z,82.50
2017-11-11T04:12:16.465Z,82.54
2017-11-11T04:13:23.129Z,82.57
2017-11-11T04:14:29.997Z,82.60
2017-11-11T04:15:36.770Z,82.62
2017-11-11T04:16:43.534Z,82.63
2017-11-11T04:17:50.357Z,82.69
2017-11-11T04:18:57.082Z,82.73
2017-11-11T04:20:03.777Z,82.72
2017-11-11T04:21:10.604Z,82.75
2017-11-11T04:22:17.333Z,82.80
2017-11-11T04:23:24.213Z,82.83
2017-11-11T04:24:31.189Z,82.86
2017-11-11T04:25:38.092Z,82.91
2017-11-11T04:26:44.935Z,82.90
2017-11-11T04:27:51.770Z,82.96
2017-11-11T04:28:58.449Z,82.97
2017-11-11T04:30:05.755Z,83.00
2017-11-11T04:31:12.467Z,83.04
2017-11-11T04:32:19.309Z,83.08
2017-11-11T04:33:26.474Z,83.11
2017-11-11T04:34:33.241Z,83.14
2017-11-11T04:35:40.041Z,83.16
2017-11-11T04:36:46.829Z,83.19
2017-11-11T04:37:53.672Z,83.22
2017-11-11T04:39:00.542Z,83.24
2017-11-11T04:40:07.590Z,83.28
2017-11-11T04:41:14.522Z,83.29
2017-11-11T04:42:21.326Z,83.31
2017-11-11T04:43:28.215Z,83.33
2017-11-11T04:44:35.001Z,83.39
2017-11-11T04:45:41.886Z,83.41
2017-11-11T04:46:48.785Z,83.41
2017-11-11T04:47:55.537Z,83.46
2017-11-11T04:49:02.522Z,83.45
2017-11-11T04:50:09.445Z,83.49
2017-11-11T04:51:16.230Z,83.53
2017-11-11T04:52:22.915Z,83.53
2017-11-11T04:53:30.323Z,83.53
2017-11-11T04:54:37.067Z,83.55
2017-11-11T04:55:44.028Z,83.60
2017-11-11T04:56:50.814Z,83.61
2017-11-11T04:57:57.621Z,83.63
2017-11-11T04:59:04.446Z,83.67
2017-11-11T05:00:11.193Z,83.78
2017-11-11T05:01:17.905Z,83.76
2017-11-11T05:02:24.699Z,83.80
2017-11-11T05:03:31.502Z,83.80
2017-11-11T05:04:38.292Z,83.85
2017-11-11T05:05:45.230Z,83.88
2017-11-11T05:06:51.941Z,83.88
2017-11-11T05:07:58.751Z,83.90
2017-11-11T05:09:05.526Z,83.92
2017-11-11T05:10:12.330Z,83.94
2017-11-11T05:11:19.133Z,83.97
2017-11-11T05:12:25.993Z,84.01
2017-11-11T05:13:33.044Z,84.04
2017-11-11T05:14:39.810Z,84.04
2017-11-11T05:15:46.510Z,84.10
2017-11-11T05:16:53.583Z,84.13
2017-11-11T05:18:00.466Z,84.16
2017-11-11T05:19:07.396Z,84.21
2017-11-11T05:20:14.103Z,84.22
2017-11-11T05:21:20.959Z,84.23
2017-11-11T05:22:27.674Z,84.25
2017-11-11T05:23:34.598Z,84.31
2017-11-11T05:24:41.342Z,84.34
2017-11-11T05:25:48.062Z,84.36
2017-11-11T05:26:54.874Z,84.37
2017-11-11T05:28:01.544Z,84.37
2017-11-11T05:29:08.302Z,84.40
2017-11-11T05:30:14.999Z,84.43
2017-11-11T05:31:21.730Z,84.46
2017-11-11T05:32:28.654Z,84.48
2017-11-11T05:33:35.530Z,84.53
2017-11-11T05:34:42.226Z,84.57
2017-11-11T05:35:49.222Z,84.58
2017-11-11T05:36:55.894Z,84.61
2017-11-11T05:38:02.817Z,84.66
2017-11-11T05:39:09.550Z,84.71
2017-11-11T05:40:16.359Z,84.73
2017-11-11T05:41:23.231Z,84.75
2017-11-11T05:42:29.925Z,84.74
2017-11-11T05:43:36.656Z,84.80
2017-11-11T05:44:43.618Z,84.79
2017-11-11T05:45:50.483Z,84.78
2017-11-11T05:46:57.265Z,84.83
2017-11-11T05:48:04.041Z,84.89
2017-11-11T05:49:10.846Z,84.89
2017-11-11T05:50:17.738Z,84.91
2017-11-11T05:51:24.466Z,84.90
2017-11-11T05:52:31.167Z,84.95
2017-11-11T05:53:38.026Z,84.99
2017-11-11T05:54:45.021Z,85.01
2017-11-11T05:55:51.794Z,85.03
2017-11-11T05:56:58.574Z,85.07
2017-11-11T05:58:05.334Z,85.09
2017-11-11T05:59:12.026Z,85.12
2017-11-11T06:00:18.873Z,85.16
2017-11-11T06:01:25.725Z,85.16
2017-11-11T06:02:32.662Z,85.19
2017-11-11T06:03:39.434Z,85.22
2017-11-11T06:04:46.182Z,85.25
2017-11-11T06:05:53.070Z,85.27
2017-11-11T06:06:59.737Z,85.28
2017-11-11T06:08:06.526Z,85.30
2017-11-11T06:09:13.386Z,85.33
2017-11-11T06:10:20.328Z,85.35
2017-11-11T06:11:27.345Z,85.42
2017-11-11T06:12:34.152Z,85.44
2017-11-11T06:13:41.282Z,85.44
2017-11-11T06:14:48.102Z,85.44
2017-11-11T06:15:55.090Z,85.48
2017-11-11T06:17:02.081Z,85.47
2017-11-11T06:18:08.877Z,85.49
2017-11-11T06:19:15.696Z,85.49
2017-11-11T06:20:22.482Z,85.53
2017-11-11T06:21:29.302Z,85.54
2017-11-11T06:22:36.034Z,85.56
2017-11-11T06:23:43.262Z,85.57
2017-11-11T06:24:50.139Z,85.62
2017-11-11T06:25:56.901Z,85.60
2017-11-11T06:27:03.733Z,85.65
2017-11-11T06:28:10.866Z,85.67
2017-11-11T06:29:17.700Z,85.69
2017-11-11T06:30:24.599Z,85.76
2017-11-11T06:31:31.534Z,85.79
2017-11-11T06:32:38.357Z,85.76
2017-11-11T06:33:45.003Z,85.77
2017-11-11T06:34:52.298Z,85.76
2017-11-11T06:35:59.174Z,85.77
2017-11-11T06:37:05.854Z,85.79
2017-11-11T06:38:13.058Z,85.81
2017-11-11T06:39:19.798Z,85.81
2017-11-11T06:40:26.638Z,85.85
2017-11-11T06:41:33.670Z,85.88
2017-11-11T06:42:40.382Z,85.89
2017-11-11T06:43:47.190Z,85.90
2017-11-11T06:44:53.976Z,85.91
2017-11-11T06:46:00.799Z,85.93
2017-11-11T06:47:07.554Z,85.94
2017-11-11T06:48:14.819Z,85.95
2017-11-11T06:49:21.514Z,85.97
2017-11-11T06:50:28.814Z,85.98
2017-11-11T06:51:36.057Z,86.02
2017-11-11T06:52:42.352Z,86.03
2017-11-11T06:53:49.247Z,86.03
2017-11-11T06:54:55.967Z,86.05
2017-11-11T06:56:02.659Z,86.07
2017-11-11T06:57:09.994Z,86.11
2017-11-11T06:58:16.678Z,86.11
2017-11-11T06:59:23.899Z,86.13
2017-11-11T07:00:30.571Z,86.17
2017-11-11T07:01:37.477Z,86.17
2017-11-11T07:02:44.417Z,86.17
2017-11-11T07:03:51.190Z,86.20
2017-11-11T07:04:58.100Z,86.19
2017-11-11T07:06:04.725Z,86.23
2017-11-11T07:07:12.126Z,86.23
2017-11-11T07:08:18.926Z,86.27
2017-11-11T07:09:25.597Z,86.28
2017-11-11T07:10:32.614Z,86.31
2017-11-11T07:11:39.470Z,86.32
2017-11-11T07:12:46.378Z,86.33
2017-11-11T07:13:53.046Z,86.36
2017-11-11T07:15:00.005Z,86.40
2017-11-11T07:16:06.822Z,86.42
2017-11-11T07:17:13.712Z,86.43
2017-11-11T07:18:20.454Z,86.47
2017-11-11T07:19:27.394Z,86.51
2017-11-11T07:20:34.261Z,86.50
2017-11-11T07:21:41.058Z,86.57
2017-11-11T07:22:47.933Z,86.59
2017-11-11T07:23:54.846Z,86.58
2017-11-11T07:25:01.670Z,86.60
2017-11-11T07:26:08.426Z,86.67
2017-11-11T07:27:15.242Z,86.68
2017-11-11T07:28:22.031Z,86.68
2017-11-11T07:29:29.002Z,86.73
2017-11-11T07:30:35.982Z,86.77
2017-11-11T07:31:42.682Z,86.77
2017-11-11T07:32:49.561Z,86.80
2017-11-11T07:33:56.466Z,86.81
2017-11-11T07:35:03.398Z,86.81
2017-11-11T07:36:10.329Z,86.85
2017-11-11T07:37:16.975Z,86.87
2017-11-11T07:38:23.707Z,86.92
2017-11-11T07:39:30.511Z,86.95
2017-11-11T07:40:37.314Z,86.94
2017-11-11T07:41:44.066Z,87.01
2017-11-11T07:42:50.764Z,87.03
2017-11-11T07:43:57.566Z,87.05
2017-11-11T07:45:04.278Z,87.10
2017-11-11T07:46:11.158Z,87.18
2017-11-11T07:47:17.899Z,87.18
2017-11-11T07:48:24.757Z,87.21
2017-11-11T07:49:31.498Z,87.21
2017-11-11T07:50:38.221Z,87.19
2017-11-11T07:51:45.170Z,87.22
2017-11-11T07:52:51.961Z,87.24
2017-11-11T07:53:58.694Z,87.26
2017-11-11T07:55:05.442Z,87.29
2017-11-11T07:56:12.307Z,87.32
2017-11-11T07:57:19.357Z,87.35
2017-11-11T07:58:26.226Z,87.37
2017-11-11T07:59:33.015Z,87.40
2017-11-11T08:00:39.727Z,87.42
2017-11-11T08:01:46.594Z,87.46
2017-11-11T08:02:53.329Z,87.48
2017-11-11T08:04:00.286Z,87.50
2017-11-11T08:05:07.130Z,87.52
2017-11-11T08:06:13.890Z,87.54
2017-11-11T08:07:20.718Z,87.55
2017-11-11T08:08:27.585Z,87.57
2017-11-11T08:09:34.278Z,87.60
2017-11-11T08:10:41.906Z,87.65
2017-11-11T08:11:48.699Z,87.68
2017-11-11T08:12:55.389Z,87.70
2017-11-11T08:14:02.228Z,87.71
2017-11-11T08:15:08.923Z,87.76
2017-11-11T08:16:16.249Z,87.80
2017-11-11T08:17:23.091Z,87.78
2017-11-11T08:18:29.910Z,87.83
2017-11-11T08:19:36.670Z,87.84
2017-11-11T08:20:43.486Z,87.86
2017-11-11T08:21:50.326Z,87.88
2017-11-11T08:22:57.400Z,87.90
2017-11-11T08:24:04.206Z,87.91
2017-11-11T08:25:11.086Z,87.93
2017-11-11T08:26:18.103Z,87.95
2017-11-11T08:27:25.018Z,87.97
2017-11-11T08:28:31.826Z,87.98
2017-11-11T08:29:38.802Z,88.00
2017-11-11T08:30:45.701Z,88.02
2017-11-11T08:31:52.557Z,88.08
2017-11-11T08:32:59.347Z,88.14
2017-11-11T08:34:06.352Z,88.17
2017-11-11T08:35:13.458Z,88.20
2017-11-11T08:36:20.219Z,88.20
2017-11-11T08:37:27.075Z,88.23
2017-11-11T08:38:33.820Z,88.29
2017-11-11T08:39:41.313Z,88.29
2017-11-11T08:40:48.221Z,88.30
2017-11-11T08:41:55.058Z,88.33
2017-11-11T08:43:01.869Z,88.36
2017-11-11T08:44:08.594Z,88.34
2017-11-11T08:45:15.474Z,88.37
2017-11-11T08:46:22.307Z,88.40
2017-11-11T08:47:29.029Z,88.43
2017-11-11T08:48:35.834Z,88.45
2017-11-11T08:49:42.778Z,88.47
2017-11-11T08:50:49.770Z,88.51
2017-11-11T08:51:56.742Z,88.54
2017-11-11T08:53:03.743Z,88.56
2017-11-11T08:54:10.605Z,88.54
2017-11-11T08:55:17.534Z,88.58
2017-11-11T08:56:24.827Z,88.60
2017-11-11T08:57:31.392Z,88.64
2017-11-11T08:58:38.324Z,88.63
2017-11-11T08:59:45.193Z,88.65
2017-11-11T09:00:51.939Z,88.65
2017-11-11T09:01:58.818Z,88.66
2017-11-11T09:03:05.681Z,88.66
2017-11-11T09:04:12.559Z,88.67
2017-11-11T09:05:19.442Z,88.69
2017-11-11T09:06:26.183Z,88.71
2017-11-11T09:07:33.094Z,88.73
2017-11-11T09:08:39.851Z,88.79
2017-11-11T09:09:46.731Z,88.82
2017-11-11T09:10:53.598Z,88.85
2017-11-11T09:12:00.315Z,88.87
2017-11-11T09:13:07.155Z,88.88
2017-11-11T09:14:14.069Z,88.92
2017-11-11T09:15:20.791Z,88.94
2017-11-11T09:16:27.599Z,88.96
2017-11-11T09:17:34.533Z,88.98
2017-11-11T09:18:41.294Z,89.01
2017-11-11T09:19:48.186Z,89.05
2017-11-11T09:20:54.946Z,89.06
2017-11-11T09:22:01.848Z,89.09
2017-11-11T09:23:08.583Z,89.06
2017-11-11T09:24:15.583Z,89.10
2017-11-11T09:25:22.491Z,89.09
2017-11-11T09:26:29.266Z,89.10
2017-11-11T09:27:36.035Z,89.10
2017-11-11T09:28:42.919Z,89.13
2017-11-11T09:29:49.688Z,89.14
2017-11-11T09:30:56.467Z,89.14
2017-11-11T09:32:03.266Z,89.15
2017-11-11T09:33:10.443Z,89.14
2017-11-11T09:34:17.478Z,89.15
2017-11-11T09:35:24.577Z,89.15
2017-11-11T09:36:31.019Z,89.18
2017-11-11T09:37:37.813Z,89.21
2017-11-11T09:38:44.637Z,89.21
2017-11-11T09:39:51.486Z,89.22
2017-11-11T09:40:58.414Z,89.26
2017-11-11T09:42:05.119Z,89.28
2017-11-11T09:43:11.902Z,89.30
2017-11-11T09:44:18.921Z,89.29
2017-11-11T09:45:25.603Z,89.31
2017-11-11T09:46:32.327Z,89.34
2017-11-11T09:47:39.283Z,89.34
2017-11-11T09:48:46.121Z,89.36
2017-11-11T09:49:53.292Z,89.38
2017-11-11T09:51:01.694Z,89.40
2017-11-11T09:52:07.153Z,89.42
2017-11-11T09:53:14.092Z,89.44
2017-11-11T09:54:21.032Z,89.41
2017-11-11T09:55:27.865Z,89.43
2017-11-11T09:56:34.715Z,89.49
2017-11-11T09:57:41.596Z,89.47
2017-11-11T09:58:48.365Z,89.53
2017-11-11T09:59:55.063Z,89.54
2017-11-11T10:01:01.780Z,89.53
2017-11-11T10:02:08.637Z,89.55
2017-11-11T10:03:15.534Z,89.55
2017-11-11T10:04:22.403Z,89.56
2017-11-11T10:05:29.367Z,89.61
2017-11-11T10:06:36.302Z,89.61
2017-11-11T10:07:43.112Z,89.65
2017-11-11T10:08:49.850Z,89.64
2017-11-11T10:09:56.658Z,89.66
2017-11-11T10:11:03.806Z,89.68
2017-11-11T10:12:10.710Z,89.70
2017-11-11T10:13:17.513Z,89.72
2017-11-11T10:14:24.318Z,89.73
2017-11-11T10:15:31.174Z,89.74
2017-11-11T10:16:38.046Z,89.76
2017-11-11T10:17:45.220Z,89.77
2017-11-11T10:18:51.951Z,89.80
2017-11-11T10:19:58.779Z,89.78
2017-11-11T10:21:05.708Z,89.82
2017-11-11T10:22:12.602Z,89.84
2017-11-11T10:23:19.599Z,89.84
2017-11-11T10:24:26.338Z,89.89
2017-11-11T10:25:33.183Z,89.90
2017-11-11T10:26:40.132Z,89.91
2017-11-11T10:27:46.975Z,89.94
2017-11-11T10:28:53.911Z,89.94
2017-11-11T10:30:00.854Z,89.96
2017-11-11T10:31:07.865Z,89.99
2017-11-11T10:32:15.184Z,90.02
2017-11-11T10:33:21.467Z,90.02
2017-11-11T10:34:28.628Z,90.07
2017-11-11T10:35:35.465Z,90.11
2017-11-11T10:36:42.363Z,90.13
2017-11-11T10:37:49.432Z,90.14
2017-11-11T10:38:56.483Z,90.15
2017-11-11T10:40:03.262Z,90.17
2017-11-11T10:41:10.053Z,90.20
2017-11-11T10:42:17.015Z,90.21
2017-11-11T10:43:23.959Z,90.22
2017-11-11T10:44:30.739Z,90.25
2017-11-11T10:45:37.690Z,90.25
2017-11-11T10:46:44.555Z,90.27
2017-11-11T10:47:51.348Z,90.29
2017-11-11T10:48:58.210Z,90.31
2017-11-11T10:50:05.197Z,90.30
2017-11-11T10:51:12.286Z,90.30
2017-11-11T10:52:19.083Z,90.34
2017-11-11T10:53:25.852Z,90.34
2017-11-11T10:54:32.722Z,90.38
2017-11-11T10:55:39.582Z,90.41
2017-11-11T10:56:46.755Z,90.41
2017-11-11T10:57:53.558Z,90.43
2017-11-11T10:59:00.734Z,90.46
2017-11-11T11:00:07.827Z,90.49
2017-11-11T11:01:14.913Z,90.53
2017-11-11T11:02:21.953Z,90.56
2017-11-11T11:03:28.917Z,90.58
2017-11-11T11:04:35.764Z,90.59
2017-11-11T11:05:42.806Z,90.62
2017-11-11T11:06:50.169Z,90.67
2017-11-11T11:07:56.673Z,90.72
2017-11-11T11:09:03.448Z,90.74
2017-11-11T11:10:10.536Z,90.77
2017-11-11T11:11:17.446Z,90.77
2017-11-11T11:12:24.867Z,90.76
2017-11-11T11:13:31.524Z,90.80
2017-11-11T11:14:38.339Z,90.86
2017-11-11T11:15:45.167Z,90.87
2017-11-11T11:16:51.991Z,90.91
2017-11-11T11:17:58.916Z,90.91
2017-11-11T11:19:05.604Z,90.96
2017-11-11T11:20:12.734Z,91.01
2017-11-11T11:21:19.886Z,91.02
2017-11-11T11:22:26.787Z,91.04
2017-11-11T11:23:33.769Z,91.07
2017-11-11T11:24:40.433Z,91.10
2017-11-11T11:25:47.567Z,91.12
2017-11-11T11:26:55.840Z,91.16
2017-11-11T11:28:01.285Z,91.17
2017-11-11T11:29:08.345Z,91.19
2017-11-11T11:30:15.267Z,91.26
2017-11-11T11:31:22.243Z,91.29
2017-11-11T11:32:29.139Z,91.30
2017-11-11T11:33:35.981Z,91.35
2017-11-11T11:34:43.152Z,91.36
2017-11-11T11:35:50.208Z,91.37
2017-11-11T11:36:57.215Z,91.39
2017-11-11T11:38:04.266Z,91.41
2017-11-11T11:39:11.203Z,91.41
2017-11-11T11:40:18.222Z,91.42
2017-11-11T11:41:25.115Z,91.45
2017-11-11T11:42:31.910Z,91.47
2017-11-11T11:43:38.745Z,91.47
2017-11-11T11:44:45.762Z,91.50
2017-11-11T11:45:52.763Z,91.50
2017-11-11T11:46:59.751Z,91.53
2017-11-11T11:48:06.627Z,91.57
2017-11-11T11:49:13.658Z,91.59
2017-11-11T11:50:20.550Z,91.63
2017-11-11T11:51:27.436Z,91.62
2017-11-11T11:52:34.705Z,91.64
2017-11-11T11:53:41.017Z,91.65
2017-11-11T11:54:47.810Z,91.69
2017-11-11T11:55:54.498Z,91.69
2017-11-11T11:57:01.386Z,91.73
2017-11-11T11:58:08.308Z,91.72
2017-11-11T11:59:15.107Z,91.74
2017-11-11T12:00:21.823Z,91.77
2017-11-11T12:01:28.756Z,91.80
2017-11-11T12:02:35.567Z,91.84
2017-11-11T12:03:42.378Z,91.89
2017-11-11T12:04:49.179Z,91.90
2017-11-11T12:05:55.976Z,91.94
2017-11-11T12:07:02.667Z,91.97
2017-11-11T12:08:09.526Z,92.00
2017-11-11T12:09:16.247Z,92.01
2017-11-11T12:10:23.054Z,92.02
2017-11-11T12:11:29.830Z,92.04
2017-11-11T12:12:36.611Z,92.05
2017-11-11T12:13:43.553Z,92.06
2017-11-11T12:14:50.358Z,92.07
2017-11-11T12:15:57.027Z,92.13
2017-11-11T12:17:04.307Z,92.17
2017-11-11T12:18:11.135Z,92.18
2017-11-11T12:19:18.146Z,92.21
2017-11-11T12:20:25.117Z,92.18
2017-11-11T12:21:31.906Z,92.22
2017-11-11T12:22:38.754Z,92.24
2017-11-11T12:23:45.721Z,92.23
2017-11-11T12:24:52.422Z,92.27
2017-11-11T12:25:59.454Z,92.25
2017-11-11T12:27:06.119Z,92.24
2017-11-11T12:28:13.081Z,92.23
2017-11-11T12:29:19.900Z,92.24
2017-11-11T12:30:27.034Z,92.25
2017-11-11T12:31:33.766Z,92.23
2017-11-11T12:32:40.563Z,92.23
2017-11-11T12:33:47.422Z,92.20
2017-11-11T12:34:54.226Z,92.21
2017-11-11T12:36:01.050Z,92.22
2017-11-11T12:37:08.178Z,92.22
2017-11-11T12:38:15.079Z,92.22
2017-11-11T12:39:22.030Z,92.21
2017-11-11T12:40:28.799Z,92.22
2017-11-11T12:41:35.574Z,92.23
2017-11-11T12:42:42.548Z,92.23
2017-11-11T12:43:49.415Z,92.25
2017-11-11T12:44:56.421Z,92.26
2017-11-11T12:46:03.314Z,92.26
2017-11-11T12:47:10.305Z,92.27
2017-11-11T12:48:17.210Z,92.26
2017-11-11T12:49:24.059Z,92.28
2017-11-11T12:50:30.911Z,92.32
2017-11-11T12:51:37.739Z,92.32
2017-11-11T12:52:44.705Z,92.34
2017-11-11T12:53:51.683Z,92.34
2017-11-11T12:54:58.544Z,92.34
2017-11-11T12:56:05.386Z,92.36
2017-11-11T12:57:12.197Z,92.36
2017-11-11T12:58:19.014Z,92.36
2017-11-11T12:59:25.982Z,92.36
2017-11-11T13:00:33.056Z,92.35
2017-11-11T13:01:39.862Z,92.38
2017-11-11T13:02:47.033Z,92.42
2017-11-11T13:03:53.943Z,92.46
2017-11-11T13:05:01.062Z,92.44
2017-11-11T13:06:08.146Z,92.42
2017-11-11T13:07:15.179Z,92.43
2017-11-11T13:08:22.049Z,92.43
2017-11-11T13:09:29.040Z,92.44
2017-11-11T13:10:35.871Z,92.48
2017-11-11T13:11:42.712Z,92.48
2017-11-11T13:12:49.622Z,92.49
2017-11-11T13:13:56.601Z,92.50
2017-11-11T13:15:03.563Z,92.50
2017-11-11T13:16:10.309Z,92.52
2017-11-11T13:17:17.241Z,92.51
2017-11-11T13:18:23.974Z,92.50
2017-11-11T13:19:30.686Z,92.50
2017-11-11T13:20:37.647Z,92.47
2017-11-11T13:21:44.434Z,92.48
2017-11-11T13:22:51.410Z,92.46
2017-11-11T13:23:58.406Z,92.46
2017-11-11T13:25:05.313Z,92.48
2017-11-11T13:26:12.161Z,92.49
2017-11-11T13:27:18.958Z,92.47
2017-11-11T13:28:26.034Z,92.49
2017-11-11T13:29:32.420Z,92.47
2017-11-11T13:30:39.277Z,92.47
2017-11-11T13:31:46.627Z,92.47
2017-11-11T13:32:52.926Z,92.48
2017-11-11T13:33:59.722Z,92.46
2017-11-11T13:35:06.449Z,92.44
2017-11-11T13:36:13.303Z,92.44
2017-11-11T13:37:20.134Z,92.45
2017-11-11T13:38:27.051Z,92.44
2017-11-11T13:39:33.807Z,92.45
2017-11-11T13:40:40.626Z,92.46
2017-11-11T13:41:47.370Z,92.47
2017-11-11T13:42:54.238Z,92.47
2017-11-11T13:44:01.170Z,92.48
2017-11-11T13:45:07.981Z,92.48
2017-11-11T13:46:14.926Z,92.47
2017-11-11T13:47:21.927Z,92.45
2017-11-11T13:48:28.718Z,92.49
2017-11-11T13:49:35.870Z,92.49
2017-11-11T13:50:42.574Z,92.48
2017-11-11T13:51:49.435Z,92.47
2017-11-11T13:52:56.334Z,92.47
2017-11-11T13:54:03.049Z,92.45
2017-11-11T13:55:09.949Z,92.45
2017-11-11T13:56:16.755Z,92.44
2017-11-11T13:57:23.606Z,92.45
2017-11-11T13:58:30.322Z,92.42
2017-11-11T13:59:37.140Z,92.44
2017-11-11T14:00:43.931Z,92.42
2017-11-11T14:01:50.643Z,92.41
2017-11-11T14:02:57.424Z,92.42
2017-11-11T14:04:04.147Z,92.40
2017-11-11T14:05:11.114Z,92.39
2017-11-11T14:06:17.738Z,92.42
2017-11-11T14:07:25.020Z,92.40
2017-11-11T14:08:31.778Z,92.40
2017-11-11T14:09:38.602Z,92.43
2017-11-11T14:10:45.441Z,92.40
2017-11-11T14:11:52.378Z,92.40
2017-11-11T14:12:59.326Z,92.41
2017-11-11T14:14:06.131Z,92.41
2017-11-11T14:15:12.959Z,92.39
2017-11-11T14:16:19.720Z,92.38
2017-11-11T14:17:26.619Z,92.41
2017-11-11T14:18:33.414Z,92.38
2017-11-11T14:19:40.202Z,92.39
2017-11-11T14:20:46.995Z,92.38
2017-11-11T14:21:53.851Z,92.40